Covington, IN

5:30 AM EDT on July 26, 2017 (GMT -0400)
WX9C | | Change Station
Active Advisory: Flood Warning

Elev 617 ft 40.13 °N, 87.38 °W | Updated 129 days ago

Clear
Clear
0.0 °F
Feels Like 0 °F
N
0.0
Wind Variable Wind from North
Gusts 0.0 mph

Today
High -- | Low -- °F
--% Chance of Precip.
Yesterday
High -- | Low -- °F
Precip. -- in
Pressure 30.10 in
Visibility 10.0 miles
Clouds Clear
Windchill 0 °F
Dew Point Not available.
Humidity Not available.
Rainfall 0.00 in
Snow Depth Not available.
6:42 AM 9:09 PM
Waxing Crescent, 12% visible
METAR KDNV 260915Z AUTO 00000KT 10SM CLR 16/15 A3010 RMK AO2 T01570151
Pressure 30.10 in
Visibility 10.0 miles
Clouds Clear
Windchill 0 °F
Dew Point Not available.
Humidity Not available.
Rainfall 0.00 in
Snow Depth Not available.
6:42 AM 9:09 PM
Waxing Crescent, 12% visible
METAR KDNV 260915Z AUTO 00000KT 10SM CLR 16/15 A3010 RMK AO2 T01570151

Get Your Daily Forecast Email!

Thanks for signing up!

Be on the lookout for a verification email in your inbox.

You'll start receiving severe weather alerts in your inbox..

×

10-Day Weather Forecast

Almanac

Astronomy

Jul. 26, 2017 Rise Set
Actual Time
Civil Twilight
Nautical Twilight
Astronomical Twilight
Moon
Length of Visible Light
Length of Day
Tomorrow will be .
, % of the Moon is Illuminated

Today's Extremes

State Highs State Lows

Community

WunderPhotos

Category 6

Welcome to Category 6. This is the collective home for Weather Underground's featured writeups by Dr. Jeff Masters (right), Bob Henson (left), Chris Burt, and other regular contributors.

Nearby

Air Quality

  Air Quality AQ Index Pollutant
Not available.

Snow Depth

Station Depth Elevation

Earthquake Activity

City Distance Mag. Time & Date
Minimum magnitude displayed is 2.5.

Coastal Water Temperatures

Place Temperature

Stations

Nearby Weather Stations

Station Location Temp. Windchill Dew Point Humidity Wind Precip. Elev Updated Type
                   

Watches & Warnings

Flood Warning
Issued: 8:41 PM EDT Jul. 25, 2017 – National Weather Service

The Flood Warning continues for
the Wabash River at Covington.
* Until Wednesday afternoon.
* At 7:45 PM Tuesday the stage was 17.0 feet.
* Flood stage is 16.0 feet.
* Minor flooding is occurring.
* Forecast... the river will continue to fall to below flood stage by
after midnight tomorrow.
* At 17.5 feet... some low agricultural fields flood. Backyard flood
of cottages a short distance north of U.S. Highway 136. High water
blocks land access to at least one residence.


Lat... Lon 4033 8709 4017 8737 3997 8739 3997 8745
      4020 8747 4040 8709